sensor_id;sensor_type;location;lat;lon;timestamp;P1;durP1;ratioP1;P2;durP2;ratioP2
55300;SDS011;58302;51.446;-2.000;2023-11-21T00:01:54;1.13;;;1.00;;
55300;SDS011;58302;51.446;-2.000;2023-11-21T00:04:20;0.60;;;0.60;;
55300;SDS011;58302;51.446;-2.000;2023-11-21T00:06:47;1.65;;;0.93;;
55300;SDS011;58302;51.446;-2.000;2023-11-21T00:09:13;1.45;;;0.60;;
55300;SDS011;58302;51.446;-2.000;2023-11-21T00:11:41;0.73;;;0.68;;
55300;SDS011;58302;51.446;-2.000;2023-11-21T00:14:07;3.42;;;1.77;;
55300;SDS011;58302;51.446;-2.000;2023-11-21T00:16:34;1.08;;;0.93;;
55300;SDS011;58302;51.446;-2.000;2023-11-21T00:18:59;1.55;;;0.95;;
55300;SDS011;58302;51.446;-2.000;2023-11-21T00:21:25;0.98;;;0.88;;
55300;SDS011;58302;51.446;-2.000;2023-11-21T00:23:51;1.55;;;0.77;;
55300;SDS011;58302;51.446;-2.000;2023-11-21T00:26:18;1.20;;;0.68;;
55300;SDS011;58302;51.446;-2.000;2023-11-21T00:28:44;2.28;;;0.70;;
55300;SDS011;58302;51.446;-2.000;2023-11-21T00:31:11;2.03;;;1.10;;
55300;SDS011;58302;51.446;-2.000;2023-11-21T00:33:37;1.05;;;0.85;;
55300;SDS011;58302;51.446;-2.000;2023-11-21T00:36:03;1.85;;;1.00;;
55300;SDS011;58302;51.446;-2.000;2023-11-21T00:38:29;3.45;;;1.08;;
55300;SDS011;58302;51.446;-2.000;2023-11-21T00:40:55;2.05;;;1.00;;
55300;SDS011;58302;51.446;-2.000;2023-11-21T00:43:24;2.38;;;1.52;;
55300;SDS011;58302;51.446;-2.000;2023-11-21T00:45:50;1.27;;;1.17;;
55300;SDS011;58302;51.446;-2.000;2023-11-21T00:48:16;1.13;;;0.80;;
55300;SDS011;58302;51.446;-2.000;2023-11-21T00:50:43;2.75;;;1.15;;
55300;SDS011;58302;51.446;-2.000;2023-11-21T00:53:10;1.15;;;0.82;;
55300;SDS011;58302;51.446;-2.000;2023-11-21T00:55:36;1.02;;;1.00;;
55300;SDS011;58302;51.446;-2.000;2023-11-21T00:58:05;1.00;;;0.90;;
55300;SDS011;58302;51.446;-2.000;2023-11-21T01:00:35;2.67;;;1.08;;
55300;SDS011;58302;51.446;-2.000;2023-11-21T01:03:01;0.88;;;0.88;;
55300;SDS011;58302;51.446;-2.000;2023-11-21T01:05:27;2.17;;;0.90;;
55300;SDS011;58302;51.446;-2.000;2023-11-21T01:07:54;2.08;;;1.08;;
55300;SDS011;58302;51.446;-2.000;2023-11-21T01:10:20;1.45;;;1.20;;
55300;SDS011;58302;51.446;-2.000;2023-11-21T01:12:46;1.52;;;0.82;;
55300;SDS011;58302;51.446;-2.000;2023-11-21T01:15:12;0.57;;;0.57;;
55300;SDS011;58302;51.446;-2.000;2023-11-21T01:17:38;0.95;;;0.95;;
55300;SDS011;58302;51.446;-2.000;2023-11-21T01:20:05;3.53;;;1.17;;
55300;SDS011;58302;51.446;-2.000;2023-11-21T01:22:36;0.30;;;0.30;;
55300;SDS011;58302;51.446;-2.000;2023-11-21T01:25:02;0.30;;;0.30;;
55300;SDS011;58302;51.446;-2.000;2023-11-21T01:27:35;0.10;;;0.10;;
55300;SDS011;58302;51.446;-2.000;2023-11-21T01:30:04;0.20;;;0.20;;
55300;SDS011;58302;51.446;-2.000;2023-11-21T01:32:32;0.00;;;0.00;;
55300;SDS011;58302;51.446;-2.000;2023-11-21T01:34:59;0.03;;;0.03;;
55300;SDS011;58302;51.446;-2.000;2023-11-21T01:37:25;0.00;;;0.00;;
55300;SDS011;58302;51.446;-2.000;2023-11-21T01:39:53;0.17;;;0.17;;
55300;SDS011;58302;51.446;-2.000;2023-11-21T01:42:20;0.20;;;0.20;;
55300;SDS011;58302;51.446;-2.000;2023-11-21T01:44:46;0.00;;;0.00;;
55300;SDS011;58302;51.446;-2.000;2023-11-21T01:47:13;0.13;;;0.13;;
55300;SDS011;58302;51.446;-2.000;2023-11-21T01:49:39;0.10;;;0.10;;
55300;SDS011;58302;51.446;-2.000;2023-11-21T01:52:05;0.00;;;0.00;;
55300;SDS011;58302;51.446;-2.000;2023-11-21T01:54:32;0.00;;;0.00;;
55300;SDS011;58302;51.446;-2.000;2023-11-21T01:56:58;0.35;;;0.35;;
55300;SDS011;58302;51.446;-2.000;2023-11-21T01:59:31;0.00;;;0.00;;
55300;SDS011;58302;51.446;-2.000;2023-11-21T02:02:00;0.10;;;0.10;;
55300;SDS011;58302;51.446;-2.000;2023-11-21T02:04:26;0.00;;;0.00;;
55300;SDS011;58302;51.446;-2.000;2023-11-21T02:06:52;0.10;;;0.10;;
55300;SDS011;58302;51.446;-2.000;2023-11-21T02:09:23;0.10;;;0.10;;
55300;SDS011;58302;51.446;-2.000;2023-11-21T02:11:52;0.00;;;0.00;;
55300;SDS011;58302;51.446;-2.000;2023-11-21T02:14:20;0.25;;;0.25;;
55300;SDS011;58302;51.446;-2.000;2023-11-21T02:16:50;1.00;;;1.00;;
55300;SDS011;58302;51.446;-2.000;2023-11-21T02:19:20;0.00;;;0.00;;
55300;SDS011;58302;51.446;-2.000;2023-11-21T02:21:56;0.00;;;0.00;;
55300;SDS011;58302;51.446;-2.000;2023-11-21T02:24:31;0.00;;;0.00;;
55300;SDS011;58302;51.446;-2.000;2023-11-21T02:26:58;0.35;;;0.35;;
55300;SDS011;58302;51.446;-2.000;2023-11-21T02:29:24;0.10;;;0.10;;
55300;SDS011;58302;51.446;-2.000;2023-11-21T02:31:56;0.47;;;0.47;;
55300;SDS011;58302;51.446;-2.000;2023-11-21T02:34:29;0.00;;;0.00;;
55300;SDS011;58302;51.446;-2.000;2023-11-21T02:36:54;0.13;;;0.13;;
55300;SDS011;58302;51.446;-2.000;2023-11-21T02:39:22;0.15;;;0.15;;
55300;SDS011;58302;51.446;-2.000;2023-11-21T02:41:49;3.72;;;1.55;;
55300;SDS011;58302;51.446;-2.000;2023-11-21T02:44:30;0.52;;;0.52;;
55300;SDS011;58302;51.446;-2.000;2023-11-21T02:46:56;0.03;;;0.03;;
55300;SDS011;58302;51.446;-2.000;2023-11-21T02:49:23;0.47;;;0.47;;
55300;SDS011;58302;51.446;-2.000;2023-11-21T02:54:39;0.65;;;0.65;;
55300;SDS011;58302;51.446;-2.000;2023-11-21T02:57:07;0.38;;;0.38;;
55300;SDS011;58302;51.446;-2.000;2023-11-21T02:59:52;0.43;;;0.43;;
55300;SDS011;58302;51.446;-2.000;2023-11-21T03:02:18;0.20;;;0.20;;
55300;SDS011;58302;51.446;-2.000;2023-11-21T03:04:44;0.00;;;0.00;;
55300;SDS011;58302;51.446;-2.000;2023-11-21T03:12:19;1.25;;;1.05;;
55300;SDS011;58302;51.446;-2.000;2023-11-21T03:14:57;0.45;;;0.45;;
55300;SDS011;58302;51.446;-2.000;2023-11-21T03:17:27;0.90;;;0.90;;
55300;SDS011;58302;51.446;-2.000;2023-11-21T03:24:54;0.73;;;0.73;;
55300;SDS011;58302;51.446;-2.000;2023-11-21T03:27:20;0.93;;;0.93;;
55300;SDS011;58302;51.446;-2.000;2023-11-21T03:32:16;1.25;;;1.10;;
55300;SDS011;58302;51.446;-2.000;2023-11-21T03:37:35;0.17;;;0.17;;
55300;SDS011;58302;51.446;-2.000;2023-11-21T03:42:41;0.32;;;0.32;;
55300;SDS011;58302;51.446;-2.000;2023-11-21T03:45:08;0.95;;;0.90;;
55300;SDS011;58302;51.446;-2.000;2023-11-21T03:47:34;2.03;;;1.83;;
55300;SDS011;58302;51.446;-2.000;2023-11-21T03:50:17;0.43;;;0.43;;
55300;SDS011;58302;51.446;-2.000;2023-11-21T03:55:15;2.75;;;1.63;;
55300;SDS011;58302;51.446;-2.000;2023-11-21T03:57:43;1.42;;;1.33;;
55300;SDS011;58302;51.446;-2.000;2023-11-21T04:00:10;0.63;;;0.63;;
55300;SDS011;58302;51.446;-2.000;2023-11-21T04:02:37;1.55;;;1.45;;
55300;SDS011;58302;51.446;-2.000;2023-11-21T04:05:03;0.45;;;0.45;;
55300;SDS011;58302;51.446;-2.000;2023-11-21T04:07:30;1.40;;;1.27;;
55300;SDS011;58302;51.446;-2.000;2023-11-21T04:12:29;0.63;;;0.63;;
55300;SDS011;58302;51.446;-2.000;2023-11-21T04:14:58;1.00;;;1.00;;
55300;SDS011;58302;51.446;-2.000;2023-11-21T04:20:48;0.80;;;0.80;;
55300;SDS011;58302;51.446;-2.000;2023-11-21T04:23:15;0.22;;;0.22;;
55300;SDS011;58302;51.446;-2.000;2023-11-21T04:25:46;0.68;;;0.68;;
55300;SDS011;58302;51.446;-2.000;2023-11-21T04:38:28;0.45;;;0.30;;
55300;SDS011;58302;51.446;-2.000;2023-11-21T04:50:47;23.90;;;1.77;;
55300;SDS011;58302;51.446;-2.000;2023-11-21T04:53:16;0.30;;;0.30;;
55300;SDS011;58302;51.446;-2.000;2023-11-21T04:55:55;0.73;;;0.73;;
55300;SDS011;58302;51.446;-2.000;2023-11-21T05:00:52;0.22;;;0.22;;
55300;SDS011;58302;51.446;-2.000;2023-11-21T05:03:21;0.52;;;0.52;;
55300;SDS011;58302;51.446;-2.000;2023-11-21T05:06:03;0.43;;;0.43;;
55300;SDS011;58302;51.446;-2.000;2023-11-21T05:08:35;0.50;;;0.50;;
55300;SDS011;58302;51.446;-2.000;2023-11-21T05:11:09;0.20;;;0.20;;
55300;SDS011;58302;51.446;-2.000;2023-11-21T05:14:11;1.30;;;1.20;;
55300;SDS011;58302;51.446;-2.000;2023-11-21T05:16:51;1.35;;;0.80;;
55300;SDS011;58302;51.446;-2.000;2023-11-21T05:19:20;0.08;;;0.08;;
55300;SDS011;58302;51.446;-2.000;2023-11-21T05:22:02;1.38;;;1.25;;
55300;SDS011;58302;51.446;-2.000;2023-11-21T05:24:41;0.38;;;0.15;;
55300;SDS011;58302;51.446;-2.000;2023-11-21T05:27:12;0.20;;;0.20;;
55300;SDS011;58302;51.446;-2.000;2023-11-21T05:29:38;0.17;;;0.17;;
55300;SDS011;58302;51.446;-2.000;2023-11-21T05:32:05;0.22;;;0.20;;
55300;SDS011;58302;51.446;-2.000;2023-11-21T05:34:34;0.25;;;0.25;;
55300;SDS011;58302;51.446;-2.000;2023-11-21T05:37:01;0.35;;;0.35;;
55300;SDS011;58302;51.446;-2.000;2023-11-21T05:39:27;0.30;;;0.30;;
55300;SDS011;58302;51.446;-2.000;2023-11-21T05:41:53;0.00;;;0.00;;
55300;SDS011;58302;51.446;-2.000;2023-11-21T05:44:20;0.00;;;0.00;;
55300;SDS011;58302;51.446;-2.000;2023-11-21T05:46:46;0.03;;;0.03;;
55300;SDS011;58302;51.446;-2.000;2023-11-21T05:49:18;0.00;;;0.00;;
55300;SDS011;58302;51.446;-2.000;2023-11-21T05:51:48;0.00;;;0.00;;
55300;SDS011;58302;51.446;-2.000;2023-11-21T05:54:14;0.00;;;0.00;;
55300;SDS011;58302;51.446;-2.000;2023-11-21T06:00:04;0.00;;;0.00;;
55300;SDS011;58302;51.446;-2.000;2023-11-21T06:03:08;0.98;;;0.90;;
55300;SDS011;58302;51.446;-2.000;2023-11-21T06:05:35;1.73;;;1.10;;
55300;SDS011;58302;51.446;-2.000;2023-11-21T06:08:01;2.00;;;1.00;;
55300;SDS011;58302;51.446;-2.000;2023-11-21T06:10:27;3.80;;;1.00;;
55300;SDS011;58302;51.446;-2.000;2023-11-21T06:13:05;2.10;;;1.20;;
55300;SDS011;58302;51.446;-2.000;2023-11-21T06:15:42;1.05;;;1.05;;
55300;SDS011;58302;51.446;-2.000;2023-11-21T06:21:12;0.60;;;0.60;;
55300;SDS011;58302;51.446;-2.000;2023-11-21T06:23:40;3.42;;;2.33;;
55300;SDS011;58302;51.446;-2.000;2023-11-21T06:26:22;1.63;;;0.75;;
55300;SDS011;58302;51.446;-2.000;2023-11-21T06:29:05;1.40;;;0.93;;
55300;SDS011;58302;51.446;-2.000;2023-11-21T06:37:29;0.55;;;0.55;;
55300;SDS011;58302;51.446;-2.000;2023-11-21T06:40:05;0.80;;;0.73;;
55300;SDS011;58302;51.446;-2.000;2023-11-21T06:45:55;0.43;;;0.43;;
55300;SDS011;58302;51.446;-2.000;2023-11-21T06:48:23;1.08;;;1.05;;
55300;SDS011;58302;51.446;-2.000;2023-11-21T06:50:52;0.60;;;0.60;;
55300;SDS011;58302;51.446;-2.000;2023-11-21T06:53:18;0.55;;;0.52;;
55300;SDS011;58302;51.446;-2.000;2023-11-21T06:55:45;1.00;;;1.00;;
55300;SDS011;58302;51.446;-2.000;2023-11-21T06:58:17;2.22;;;1.33;;
55300;SDS011;58302;51.446;-2.000;2023-11-21T07:00:44;0.57;;;0.55;;
55300;SDS011;58302;51.446;-2.000;2023-11-21T07:03:18;0.70;;;0.57;;
55300;SDS011;58302;51.446;-2.000;2023-11-21T07:05:53;0.60;;;0.17;;
55300;SDS011;58302;51.446;-2.000;2023-11-21T07:08:19;0.57;;;0.55;;
55300;SDS011;58302;51.446;-2.000;2023-11-21T07:10:51;1.83;;;1.73;;
55300;SDS011;58302;51.446;-2.000;2023-11-21T07:13:30;0.68;;;0.50;;
55300;SDS011;58302;51.446;-2.000;2023-11-21T07:15:59;0.95;;;0.47;;
55300;SDS011;58302;51.446;-2.000;2023-11-21T07:18:25;1.33;;;0.80;;
55300;SDS011;58302;51.446;-2.000;2023-11-21T07:20:52;0.40;;;0.40;;
55300;SDS011;58302;51.446;-2.000;2023-11-21T07:23:20;1.00;;;0.90;;
55300;SDS011;58302;51.446;-2.000;2023-11-21T07:25:49;4.13;;;1.15;;
55300;SDS011;58302;51.446;-2.000;2023-11-21T07:28:24;1.45;;;0.55;;
55300;SDS011;58302;51.446;-2.000;2023-11-21T07:30:51;1.00;;;1.00;;
55300;SDS011;58302;51.446;-2.000;2023-11-21T07:33:17;0.68;;;0.68;;
55300;SDS011;58302;51.446;-2.000;2023-11-21T07:35:44;1.88;;;1.58;;
55300;SDS011;58302;51.446;-2.000;2023-11-21T07:38:10;2.53;;;0.50;;
55300;SDS011;58302;51.446;-2.000;2023-11-21T07:40:36;0.25;;;0.25;;
55300;SDS011;58302;51.446;-2.000;2023-11-21T07:43:02;1.42;;;1.33;;
55300;SDS011;58302;51.446;-2.000;2023-11-21T07:45:40;0.15;;;0.15;;
55300;SDS011;58302;51.446;-2.000;2023-11-21T07:48:08;2.17;;;0.65;;
55300;SDS011;58302;51.446;-2.000;2023-11-21T07:53:39;0.70;;;0.50;;
55300;SDS011;58302;51.446;-2.000;2023-11-21T07:56:06;0.80;;;0.80;;
55300;SDS011;58302;51.446;-2.000;2023-11-21T07:58:42;0.50;;;0.50;;
55300;SDS011;58302;51.446;-2.000;2023-11-21T08:03:38;0.88;;;0.57;;
55300;SDS011;58302;51.446;-2.000;2023-11-21T08:08:34;3.63;;;1.05;;
55300;SDS011;58302;51.446;-2.000;2023-11-21T08:11:07;0.55;;;0.55;;
55300;SDS011;58302;51.446;-2.000;2023-11-21T08:13:33;0.98;;;0.52;;
55300;SDS011;58302;51.446;-2.000;2023-11-21T08:16:02;0.47;;;0.47;;
55300;SDS011;58302;51.446;-2.000;2023-11-21T08:18:28;0.60;;;0.60;;
55300;SDS011;58302;51.446;-2.000;2023-11-21T08:23:42;0.57;;;0.40;;
55300;SDS011;58302;51.446;-2.000;2023-11-21T08:28:41;0.40;;;0.40;;
55300;SDS011;58302;51.446;-2.000;2023-11-21T08:31:07;1.75;;;0.90;;
55300;SDS011;58302;51.446;-2.000;2023-11-21T08:33:33;2.15;;;0.50;;
55300;SDS011;58302;51.446;-2.000;2023-11-21T08:36:06;0.55;;;0.47;;
55300;SDS011;58302;51.446;-2.000;2023-11-21T08:38:34;0.80;;;0.68;;
55300;SDS011;58302;51.446;-2.000;2023-11-21T08:41:21;0.28;;;0.22;;
55300;SDS011;58302;51.446;-2.000;2023-11-21T08:43:51;1.45;;;0.63;;
55300;SDS011;58302;51.446;-2.000;2023-11-21T08:46:18;0.38;;;0.38;;
55300;SDS011;58302;51.446;-2.000;2023-11-21T08:48:44;1.63;;;0.70;;
55300;SDS011;58302;51.446;-2.000;2023-11-21T08:51:10;4.95;;;1.00;;
55300;SDS011;58302;51.446;-2.000;2023-11-21T08:53:46;1.05;;;0.88;;
55300;SDS011;58302;51.446;-2.000;2023-11-21T08:56:20;1.27;;;0.60;;
55300;SDS011;58302;51.446;-2.000;2023-11-21T08:58:46;0.82;;;0.82;;
55300;SDS011;58302;51.446;-2.000;2023-11-21T09:01:17;1.00;;;1.00;;
55300;SDS011;58302;51.446;-2.000;2023-11-21T09:03:45;1.80;;;1.00;;
55300;SDS011;58302;51.446;-2.000;2023-11-21T09:06:12;4.18;;;1.00;;
55300;SDS011;58302;51.446;-2.000;2023-11-21T09:11:09;1.20;;;1.10;;
55300;SDS011;58302;51.446;-2.000;2023-11-21T09:13:41;0.68;;;0.68;;
55300;SDS011;58302;51.446;-2.000;2023-11-21T09:16:16;2.15;;;0.90;;
55300;SDS011;58302;51.446;-2.000;2023-11-21T09:18:42;1.88;;;0.65;;
55300;SDS011;58302;51.446;-2.000;2023-11-21T09:21:16;1.08;;;0.98;;
55300;SDS011;58302;51.446;-2.000;2023-11-21T09:26:13;1.65;;;0.57;;
55300;SDS011;58302;51.446;-2.000;2023-11-21T09:28:43;1.55;;;1.45;;
55300;SDS011;58302;51.446;-2.000;2023-11-21T09:31:13;2.40;;;1.10;;
55300;SDS011;58302;51.446;-2.000;2023-11-21T09:33:47;1.88;;;1.23;;
55300;SDS011;58302;51.446;-2.000;2023-11-21T09:36:14;4.07;;;1.90;;
55300;SDS011;58302;51.446;-2.000;2023-11-21T09:38:42;1.00;;;1.00;;
55300;SDS011;58302;51.446;-2.000;2023-11-21T09:44:00;1.83;;;1.25;;
55300;SDS011;58302;51.446;-2.000;2023-11-21T09:46:33;1.52;;;1.30;;
55300;SDS011;58302;51.446;-2.000;2023-11-21T09:49:05;2.22;;;1.10;;
55300;SDS011;58302;51.446;-2.000;2023-11-21T09:51:45;3.65;;;1.70;;
55300;SDS011;58302;51.446;-2.000;2023-11-21T09:54:12;1.33;;;1.30;;
55300;SDS011;58302;51.446;-2.000;2023-11-21T09:56:42;2.03;;;1.92;;
55300;SDS011;58302;51.446;-2.000;2023-11-21T09:59:13;3.38;;;1.30;;
55300;SDS011;58302;51.446;-2.000;2023-11-21T10:01:41;1.35;;;1.23;;
55300;SDS011;58302;51.446;-2.000;2023-11-21T10:04:10;1.48;;;1.38;;
55300;SDS011;58302;51.446;-2.000;2023-11-21T10:06:40;1.70;;;1.60;;
55300;SDS011;58302;51.446;-2.000;2023-11-21T10:09:12;1.52;;;1.38;;
55300;SDS011;58302;51.446;-2.000;2023-11-21T10:11:41;0.63;;;0.63;;
55300;SDS011;58302;51.446;-2.000;2023-11-21T10:14:10;1.33;;;1.23;;
55300;SDS011;58302;51.446;-2.000;2023-11-21T10:16:38;2.15;;;1.80;;
55300;SDS011;58302;51.446;-2.000;2023-11-21T10:21:40;0.88;;;0.88;;
55300;SDS011;58302;51.446;-2.000;2023-11-21T10:24:07;6.80;;;2.45;;
55300;SDS011;58302;51.446;-2.000;2023-11-21T10:26:33;1.23;;;1.00;;
55300;SDS011;58302;51.446;-2.000;2023-11-21T10:29:00;2.03;;;1.83;;
55300;SDS011;58302;51.446;-2.000;2023-11-21T10:31:42;1.35;;;1.20;;
55300;SDS011;58302;51.446;-2.000;2023-11-21T10:34:16;1.58;;;1.42;;
55300;SDS011;58302;51.446;-2.000;2023-11-21T10:36:44;1.45;;;1.33;;
55300;SDS011;58302;51.446;-2.000;2023-11-21T10:39:14;4.00;;;1.50;;
55300;SDS011;58302;51.446;-2.000;2023-11-21T10:41:45;2.30;;;1.45;;
55300;SDS011;58302;51.446;-2.000;2023-11-21T10:44:15;2.28;;;1.30;;
55300;SDS011;58302;51.446;-2.000;2023-11-21T10:46:47;1.08;;;1.05;;
55300;SDS011;58302;51.446;-2.000;2023-11-21T10:49:26;2.30;;;1.60;;
55300;SDS011;58302;51.446;-2.000;2023-11-21T10:51:53;0.60;;;0.60;;
55300;SDS011;58302;51.446;-2.000;2023-11-21T10:54:19;1.15;;;1.05;;
55300;SDS011;58302;51.446;-2.000;2023-11-21T10:56:47;1.73;;;1.33;;
55300;SDS011;58302;51.446;-2.000;2023-11-21T10:59:17;1.55;;;1.30;;
55300;SDS011;58302;51.446;-2.000;2023-11-21T11:01:47;2.20;;;1.27;;
55300;SDS011;58302;51.446;-2.000;2023-11-21T11:04:15;1.45;;;1.30;;
55300;SDS011;58302;51.446;-2.000;2023-11-21T11:06:45;2.00;;;1.55;;
55300;SDS011;58302;51.446;-2.000;2023-11-21T11:09:19;0.75;;;0.75;;
55300;SDS011;58302;51.446;-2.000;2023-11-21T11:11:46;1.25;;;0.75;;
55300;SDS011;58302;51.446;-2.000;2023-11-21T11:14:13;1.17;;;1.08;;
55300;SDS011;58302;51.446;-2.000;2023-11-21T11:16:39;1.30;;;1.20;;
55300;SDS011;58302;51.446;-2.000;2023-11-21T11:19:10;0.90;;;0.77;;
55300;SDS011;58302;51.446;-2.000;2023-11-21T11:21:50;1.65;;;1.00;;
55300;SDS011;58302;51.446;-2.000;2023-11-21T11:36:05;4.55;;;2.08;;
55300;SDS011;58302;51.446;-2.000;2023-11-21T11:38:22;2.72;;;1.50;;
55300;SDS011;58302;51.446;-2.000;2023-11-21T11:40:52;1.52;;;1.20;;
55300;SDS011;58302;51.446;-2.000;2023-11-21T11:43:25;3.00;;;1.40;;
55300;SDS011;58302;51.446;-2.000;2023-11-21T11:45:55;1.58;;;0.95;;
55300;SDS011;58302;51.446;-2.000;2023-11-21T11:48:22;2.28;;;1.20;;
55300;SDS011;58302;51.446;-2.000;2023-11-21T11:53:48;1.73;;;1.20;;
55300;SDS011;58302;51.446;-2.000;2023-11-21T11:56:33;1.27;;;1.17;;
55300;SDS011;58302;51.446;-2.000;2023-11-21T11:59:02;1.20;;;1.10;;
55300;SDS011;58302;51.446;-2.000;2023-11-21T12:01:29;2.35;;;1.55;;
55300;SDS011;58302;51.446;-2.000;2023-11-21T12:06:57;1.13;;;1.00;;
55300;SDS011;58302;51.446;-2.000;2023-11-21T12:09:29;2.30;;;1.90;;
55300;SDS011;58302;51.446;-2.000;2023-11-21T12:11:57;1.73;;;1.30;;
55300;SDS011;58302;51.446;-2.000;2023-11-21T12:14:25;1.55;;;1.05;;
55300;SDS011;58302;51.446;-2.000;2023-11-21T12:16:51;1.58;;;1.33;;
55300;SDS011;58302;51.446;-2.000;2023-11-21T12:19:17;1.92;;;1.13;;
55300;SDS011;58302;51.446;-2.000;2023-11-21T12:21:44;1.60;;;1.20;;
55300;SDS011;58302;51.446;-2.000;2023-11-21T12:24:10;5.05;;;1.65;;
55300;SDS011;58302;51.446;-2.000;2023-11-21T12:26:39;3.22;;;1.50;;
55300;SDS011;58302;51.446;-2.000;2023-11-21T12:29:06;1.75;;;1.23;;
55300;SDS011;58302;51.446;-2.000;2023-11-21T12:31:33;0.82;;;0.82;;
55300;SDS011;58302;51.446;-2.000;2023-11-21T12:34:00;1.70;;;1.40;;
55300;SDS011;58302;51.446;-2.000;2023-11-21T12:36:27;1.77;;;1.30;;
55300;SDS011;58302;51.446;-2.000;2023-11-21T12:38:55;1.88;;;1.25;;
55300;SDS011;58302;51.446;-2.000;2023-11-21T12:41:22;5.45;;;1.50;;
55300;SDS011;58302;51.446;-2.000;2023-11-21T12:43:48;2.00;;;1.13;;
55300;SDS011;58302;51.446;-2.000;2023-11-21T12:46:15;1.27;;;1.00;;
55300;SDS011;58302;51.446;-2.000;2023-11-21T12:48:44;2.67;;;1.00;;
55300;SDS011;58302;51.446;-2.000;2023-11-21T12:51:15;1.60;;;1.48;;
55300;SDS011;58302;51.446;-2.000;2023-11-21T12:53:42;1.60;;;1.30;;
55300;SDS011;58302;51.446;-2.000;2023-11-21T12:56:11;5.57;;;1.20;;
55300;SDS011;58302;51.446;-2.000;2023-11-21T12:58:38;3.67;;;1.20;;
55300;SDS011;58302;51.446;-2.000;2023-11-21T13:01:05;2.78;;;1.38;;
55300;SDS011;58302;51.446;-2.000;2023-11-21T13:03:37;2.10;;;1.33;;
55300;SDS011;58302;51.446;-2.000;2023-11-21T13:06:05;1.23;;;1.10;;
55300;SDS011;58302;51.446;-2.000;2023-11-21T13:08:33;2.10;;;1.50;;
55300;SDS011;58302;51.446;-2.000;2023-11-21T13:11:00;1.95;;;1.38;;
55300;SDS011;58302;51.446;-2.000;2023-11-21T13:13:29;3.35;;;1.45;;
55300;SDS011;58302;51.446;-2.000;2023-11-21T13:15:56;1.83;;;1.25;;
55300;SDS011;58302;51.446;-2.000;2023-11-21T13:18:23;3.00;;;1.52;;
55300;SDS011;58302;51.446;-2.000;2023-11-21T13:20:50;1.73;;;1.25;;
55300;SDS011;58302;51.446;-2.000;2023-11-21T13:23:16;3.15;;;1.48;;
55300;SDS011;58302;51.446;-2.000;2023-11-21T13:25:42;2.58;;;1.85;;
55300;SDS011;58302;51.446;-2.000;2023-11-21T13:28:11;3.22;;;1.48;;
55300;SDS011;58302;51.446;-2.000;2023-11-21T13:30:38;1.20;;;1.10;;
55300;SDS011;58302;51.446;-2.000;2023-11-21T13:33:05;1.45;;;1.30;;
55300;SDS011;58302;51.446;-2.000;2023-11-21T13:35:35;3.53;;;1.40;;
55300;SDS011;58302;51.446;-2.000;2023-11-21T13:38:10;2.35;;;1.25;;
55300;SDS011;58302;51.446;-2.000;2023-11-21T13:40:38;1.40;;;1.30;;
55300;SDS011;58302;51.446;-2.000;2023-11-21T13:43:08;3.80;;;2.30;;
55300;SDS011;58302;51.446;-2.000;2023-11-21T13:45:41;2.90;;;1.10;;
55300;SDS011;58302;51.446;-2.000;2023-11-21T13:48:08;2.78;;;1.67;;
55300;SDS011;58302;51.446;-2.000;2023-11-21T13:50:37;1.80;;;1.45;;
55300;SDS011;58302;51.446;-2.000;2023-11-21T13:53:03;3.55;;;1.70;;
55300;SDS011;58302;51.446;-2.000;2023-11-21T13:55:34;6.88;;;2.35;;
55300;SDS011;58302;51.446;-2.000;2023-11-21T13:58:01;3.15;;;1.38;;
55300;SDS011;58302;51.446;-2.000;2023-11-21T14:00:29;1.77;;;0.95;;
55300;SDS011;58302;51.446;-2.000;2023-11-21T14:03:15;2.22;;;1.30;;
55300;SDS011;58302;51.446;-2.000;2023-11-21T14:05:47;1.83;;;1.48;;
55300;SDS011;58302;51.446;-2.000;2023-11-21T14:08:18;4.93;;;2.00;;
55300;SDS011;58302;51.446;-2.000;2023-11-21T14:10:45;7.82;;;2.42;;
55300;SDS011;58302;51.446;-2.000;2023-11-21T14:13:17;2.97;;;1.52;;
55300;SDS011;58302;51.446;-2.000;2023-11-21T14:15:45;3.63;;;1.58;;
55300;SDS011;58302;51.446;-2.000;2023-11-21T14:20:43;3.67;;;1.30;;
55300;SDS011;58302;51.446;-2.000;2023-11-21T14:23:10;4.00;;;1.90;;
55300;SDS011;58302;51.446;-2.000;2023-11-21T14:25:37;0.90;;;0.80;;
55300;SDS011;58302;51.446;-2.000;2023-11-21T14:28:05;3.38;;;1.67;;
55300;SDS011;58302;51.446;-2.000;2023-11-21T14:30:32;1.92;;;0.77;;
55300;SDS011;58302;51.446;-2.000;2023-11-21T14:33:01;2.67;;;1.58;;
55300;SDS011;58302;51.446;-2.000;2023-11-21T14:35:27;2.30;;;1.35;;
55300;SDS011;58302;51.446;-2.000;2023-11-21T14:37:55;5.68;;;2.30;;
55300;SDS011;58302;51.446;-2.000;2023-11-21T14:40:23;2.30;;;1.15;;
55300;SDS011;58302;51.446;-2.000;2023-11-21T14:42:53;2.92;;;1.58;;
55300;SDS011;58302;51.446;-2.000;2023-11-21T14:45:21;1.83;;;1.60;;
55300;SDS011;58302;51.446;-2.000;2023-11-21T14:47:50;3.35;;;2.13;;
55300;SDS011;58302;51.446;-2.000;2023-11-21T14:50:34;5.55;;;2.08;;
55300;SDS011;58302;51.446;-2.000;2023-11-21T14:53:16;2.63;;;1.50;;
55300;SDS011;58302;51.446;-2.000;2023-11-21T14:58:29;2.45;;;1.30;;
55300;SDS011;58302;51.446;-2.000;2023-11-21T15:00:56;5.28;;;1.88;;
55300;SDS011;58302;51.446;-2.000;2023-11-21T15:03:29;2.60;;;1.77;;
55300;SDS011;58302;51.446;-2.000;2023-11-21T15:05:58;5.05;;;1.80;;
55300;SDS011;58302;51.446;-2.000;2023-11-21T15:08:53;1.70;;;1.40;;
55300;SDS011;58302;51.446;-2.000;2023-11-21T15:11:34;1.50;;;1.40;;
55300;SDS011;58302;51.446;-2.000;2023-11-21T15:14:00;2.35;;;1.90;;
55300;SDS011;58302;51.446;-2.000;2023-11-21T15:16:32;6.93;;;2.00;;
55300;SDS011;58302;51.446;-2.000;2023-11-21T15:19:00;3.05;;;1.88;;
55300;SDS011;58302;51.446;-2.000;2023-11-21T15:21:26;2.42;;;1.60;;
55300;SDS011;58302;51.446;-2.000;2023-11-21T15:23:52;8.38;;;1.95;;
55300;SDS011;58302;51.446;-2.000;2023-11-21T15:26:17;2.40;;;1.90;;
55300;SDS011;58302;51.446;-2.000;2023-11-21T15:28:43;2.45;;;1.60;;
55300;SDS011;58302;51.446;-2.000;2023-11-21T15:31:10;2.60;;;1.95;;
55300;SDS011;58302;51.446;-2.000;2023-11-21T15:33:36;2.60;;;1.60;;
55300;SDS011;58302;51.446;-2.000;2023-11-21T15:36:02;3.22;;;1.45;;
55300;SDS011;58302;51.446;-2.000;2023-11-21T15:38:29;5.93;;;1.88;;
55300;SDS011;58302;51.446;-2.000;2023-11-21T15:40:55;4.05;;;1.88;;
55300;SDS011;58302;51.446;-2.000;2023-11-21T15:43:24;4.00;;;1.67;;
55300;SDS011;58302;51.446;-2.000;2023-11-21T15:45:50;3.33;;;2.50;;
55300;SDS011;58302;51.446;-2.000;2023-11-21T15:48:16;2.15;;;1.48;;
55300;SDS011;58302;51.446;-2.000;2023-11-21T15:50:43;1.73;;;1.20;;
55300;SDS011;58302;51.446;-2.000;2023-11-21T15:53:09;1.70;;;1.42;;
55300;SDS011;58302;51.446;-2.000;2023-11-21T15:55:35;0.82;;;0.82;;
55300;SDS011;58302;51.446;-2.000;2023-11-21T15:58:08;4.50;;;3.40;;
55300;SDS011;58302;51.446;-2.000;2023-11-21T16:00:34;3.65;;;1.60;;
55300;SDS011;58302;51.446;-2.000;2023-11-21T16:03:02;4.00;;;1.83;;
55300;SDS011;58302;51.446;-2.000;2023-11-21T16:05:28;4.35;;;1.98;;
55300;SDS011;58302;51.446;-2.000;2023-11-21T16:07:53;3.53;;;1.63;;
55300;SDS011;58302;51.446;-2.000;2023-11-21T16:10:20;4.45;;;1.75;;
55300;SDS011;58302;51.446;-2.000;2023-11-21T16:12:46;2.90;;;2.03;;
55300;SDS011;58302;51.446;-2.000;2023-11-21T16:15:12;4.38;;;1.60;;
55300;SDS011;58302;51.446;-2.000;2023-11-21T16:17:39;2.75;;;1.63;;
55300;SDS011;58302;51.446;-2.000;2023-11-21T16:20:07;4.60;;;1.83;;
55300;SDS011;58302;51.446;-2.000;2023-11-21T16:22:38;3.00;;;1.52;;
55300;SDS011;58302;51.446;-2.000;2023-11-21T16:25:05;2.63;;;1.88;;
55300;SDS011;58302;51.446;-2.000;2023-11-21T16:27:39;3.10;;;2.00;;
55300;SDS011;58302;51.446;-2.000;2023-11-21T16:30:09;3.03;;;1.60;;
55300;SDS011;58302;51.446;-2.000;2023-11-21T16:32:35;3.08;;;1.48;;
55300;SDS011;58302;51.446;-2.000;2023-11-21T16:35:02;4.57;;;1.40;;
55300;SDS011;58302;51.446;-2.000;2023-11-21T16:37:29;3.58;;;1.88;;
55300;SDS011;58302;51.446;-2.000;2023-11-21T16:39:55;2.63;;;2.03;;